createdAt,value
2018-03-03T00:01:10.312Z,0.94
2018-03-03T00:03:37.856Z,0.96
2018-03-03T00:06:06.359Z,0.98
2018-03-03T00:08:33.934Z,0.96
2018-03-03T00:11:01.481Z,0.91
2018-03-03T00:13:29.049Z,0.82
2018-03-03T00:15:56.642Z,0.85
2018-03-03T00:18:24.196Z,0.91
2018-03-03T00:20:51.751Z,1.02
2018-03-03T00:23:19.323Z,1.05
2018-03-03T00:25:46.875Z,1.25
2018-03-03T00:28:14.439Z,1.20
2018-03-03T00:30:42.046Z,1.28
2018-03-03T00:33:09.599Z,1.20
2018-03-03T00:35:37.162Z,1.13
2018-03-03T00:38:04.868Z,1.08
2018-03-03T00:40:32.429Z,1.02
2018-03-03T00:42:59.981Z,0.97
2018-03-03T00:45:27.882Z,0.93
2018-03-03T00:47:55.443Z,0.96
2018-03-03T00:50:23.001Z,1.25
2018-03-03T00:52:50.595Z,1.30
2018-03-03T00:55:18.156Z,1.36
2018-03-03T00:57:45.713Z,1.38
2018-03-03T01:00:13.477Z,1.40
2018-03-03T01:02:41.024Z,1.44
2018-03-03T01:05:08.569Z,1.48
2018-03-03T01:07:36.316Z,1.56
2018-03-03T01:10:03.897Z,1.62
2018-03-03T01:12:31.447Z,1.67
2018-03-03T01:14:59.044Z,1.73
2018-03-03T01:17:26.588Z,1.78
2018-03-03T01:19:54.129Z,1.83
2018-03-03T01:22:21.703Z,1.90
2018-03-03T01:24:49.253Z,1.97
2018-03-03T01:27:16.831Z,2.01
2018-03-03T01:29:44.427Z,2.10
2018-03-03T01:32:11.985Z,2.18
2018-03-03T01:34:39.560Z,2.23
2018-03-03T01:37:07.150Z,2.27
2018-03-03T01:39:34.700Z,2.34
2018-03-03T01:42:02.250Z,2.52
2018-03-03T01:44:29.991Z,2.60
2018-03-03T01:46:57.541Z,2.60
2018-03-03T01:49:25.119Z,2.64
2018-03-03T01:51:53.681Z,2.70
2018-03-03T01:54:21.235Z,2.78
2018-03-03T01:56:48.774Z,2.95
2018-03-03T01:59:16.509Z,3.04
2018-03-03T02:01:44.080Z,3.15
2018-03-03T02:04:11.617Z,3.17
2018-03-03T02:06:39.149Z,3.19
2018-03-03T02:09:06.694Z,3.21
2018-03-03T02:11:34.277Z,3.20
2018-03-03T02:14:01.824Z,3.23
2018-03-03T02:16:29.353Z,3.39
2018-03-03T02:18:56.952Z,3.56
2018-03-03T02:21:24.493Z,3.69
2018-03-03T02:23:52.027Z,3.78
2018-03-03T02:26:19.605Z,3.85
2018-03-03T02:28:47.160Z,3.92
2018-03-03T02:31:14.712Z,3.87
2018-03-03T02:33:42.433Z,3.92
2018-03-03T02:36:09.984Z,3.97
2018-03-03T02:38:37.529Z,4.05
2018-03-03T02:41:05.105Z,4.14
2018-03-03T02:43:32.637Z,4.24
2018-03-03T02:46:00.192Z,4.33
2018-03-03T02:48:27.935Z,4.43
2018-03-03T02:50:55.480Z,4.52
2018-03-03T02:53:23.016Z,4.54
2018-03-03T02:55:50.583Z,4.59
2018-03-03T02:58:18.127Z,4.62
2018-03-03T03:00:45.680Z,4.68
2018-03-03T03:03:13.355Z,4.67
2018-03-03T03:05:40.909Z,4.82
2018-03-03T03:08:08.450Z,4.83
2018-03-03T03:10:36.179Z,4.81
2018-03-03T03:13:03.722Z,4.82
2018-03-03T03:15:31.273Z,4.86
2018-03-03T03:17:58.845Z,4.89
2018-03-03T03:20:26.390Z,4.94
2018-03-03T03:22:53.958Z,4.91
2018-03-03T03:25:21.629Z,4.90
2018-03-03T03:27:49.213Z,4.88
2018-03-03T03:30:16.776Z,4.89
2018-03-03T03:32:44.753Z,4.93
2018-03-03T03:35:12.344Z,4.94
2018-03-03T03:37:39.856Z,4.92
2018-03-03T03:40:07.434Z,4.95
2018-03-03T03:42:34.990Z,4.99
2018-03-03T03:45:02.538Z,5.02
2018-03-03T03:47:30.131Z,4.99
2018-03-03T03:49:57.689Z,5.11
2018-03-03T03:52:25.255Z,5.13
2018-03-03T03:54:52.831Z,5.24
2018-03-03T03:57:20.370Z,5.24
2018-03-03T03:59:47.918Z,5.20
2018-03-03T04:02:15.498Z,5.25
2018-03-03T04:04:43.036Z,5.25
2018-03-03T04:07:10.586Z,5.22
2018-03-03T04:09:38.259Z,5.24
2018-03-03T04:12:05.817Z,5.25
2018-03-03T04:14:33.349Z,5.23
2018-03-03T04:17:01.079Z,5.16
2018-03-03T04:19:28.618Z,5.14
2018-03-03T04:21:56.207Z,5.18
2018-03-03T04:24:23.813Z,5.16
2018-03-03T04:26:51.373Z,5.16
2018-03-03T04:29:18.938Z,5.17
2018-03-03T04:31:46.534Z,5.19
2018-03-03T04:34:14.071Z,5.22
2018-03-03T04:36:41.635Z,5.21
2018-03-03T04:39:09.206Z,5.28
2018-03-03T04:41:36.754Z,5.26
2018-03-03T04:44:04.288Z,5.22
2018-03-03T04:46:32.174Z,5.27
2018-03-03T04:48:59.740Z,5.29
2018-03-03T04:51:27.323Z,5.34
2018-03-03T04:53:55.071Z,5.39
2018-03-03T04:56:22.638Z,5.45
2018-03-03T04:58:55.773Z,5.47
2018-03-03T05:01:23.382Z,5.52
2018-03-03T05:04:05.798Z,5.47
2018-03-03T05:06:38.808Z,5.38
2018-03-03T05:09:06.369Z,5.39
2018-03-03T05:11:33.943Z,5.47
2018-03-03T05:14:06.955Z,5.53
2018-03-03T05:16:40.160Z,5.55
2018-03-03T05:19:13.581Z,5.64
2018-03-03T05:27:54.714Z,5.76
2018-03-03T05:30:27.913Z,5.80
2018-03-03T05:33:01.017Z,5.82
2018-03-03T05:35:34.062Z,5.88
2018-03-03T05:38:07.095Z,5.96
2018-03-03T05:40:40.134Z,6.05
2018-03-03T05:43:13.237Z,6.11
2018-03-03T05:45:46.266Z,6.07
2018-03-03T05:51:36.146Z,6.15
2018-03-03T05:54:05.498Z,6.13
2018-03-03T05:56:50.987Z,6.16
2018-03-03T05:59:24.016Z,6.17
2018-03-03T06:05:01.846Z,6.18
2018-03-03T06:07:41.319Z,6.23
2018-03-03T06:10:08.901Z,6.31
2018-03-03T06:12:36.441Z,6.42
2018-03-03T06:15:04.186Z,6.50
2018-03-03T06:17:31.722Z,6.53
2018-03-03T06:19:59.290Z,6.59
2018-03-03T06:22:27.042Z,6.69
2018-03-03T06:24:54.571Z,6.75
2018-03-03T06:27:22.985Z,6.80
2018-03-03T06:29:50.866Z,6.87
2018-03-03T06:32:18.454Z,6.91
2018-03-03T06:34:45.985Z,6.91
2018-03-03T06:37:13.937Z,6.93
2018-03-03T06:39:41.473Z,6.95
2018-03-03T06:42:09.007Z,6.94
2018-03-03T06:44:36.638Z,6.95
2018-03-03T06:47:04.177Z,7.00
2018-03-03T06:49:31.717Z,7.05
2018-03-03T06:51:59.299Z,7.09
2018-03-03T06:54:26.831Z,7.21
2018-03-03T06:56:54.372Z,7.74
2018-03-03T06:59:21.958Z,8.20
2018-03-03T07:01:49.492Z,8.63
2018-03-03T07:04:17.036Z,8.84
2018-03-03T07:06:44.578Z,8.77
2018-03-03T07:09:12.147Z,8.72
2018-03-03T07:11:39.740Z,8.63
2018-03-03T07:14:07.320Z,8.56
2018-03-03T07:16:34.887Z,8.64
2018-03-03T07:19:02.616Z,8.70
2018-03-03T07:21:30.162Z,8.90
2018-03-03T07:23:57.703Z,9.09
2018-03-03T07:26:25.277Z,9.30
2018-03-03T07:28:52.823Z,9.37
2018-03-03T07:31:20.367Z,9.27
2018-03-03T07:33:48.184Z,9.21
2018-03-03T07:36:15.730Z,9.36
2018-03-03T07:38:43.268Z,9.36
2018-03-03T07:41:11.001Z,9.40
2018-03-03T07:43:38.540Z,9.48
2018-03-03T07:46:06.074Z,9.63
2018-03-03T07:48:33.781Z,9.82
2018-03-03T07:51:01.349Z,9.94
2018-03-03T07:53:28.886Z,10.07
2018-03-03T07:55:56.571Z,10.11
2018-03-03T07:58:35.854Z,10.23
2018-03-03T08:01:04.246Z,10.35
2018-03-03T08:03:31.806Z,10.35
2018-03-03T08:05:59.378Z,10.32
2018-03-03T08:08:27.146Z,10.38
2018-03-03T08:10:54.686Z,10.21
2018-03-03T08:13:22.218Z,10.23
2018-03-03T08:15:49.787Z,10.17
2018-03-03T08:18:17.343Z,10.10
2018-03-03T08:20:44.888Z,10.03
2018-03-03T08:23:12.475Z,10.00
2018-03-03T08:25:40.019Z,9.99
2018-03-03T08:28:07.565Z,9.97
2018-03-03T08:30:35.157Z,10.00
2018-03-03T08:33:02.889Z,10.01
2018-03-03T08:35:30.425Z,10.14
2018-03-03T08:37:58.034Z,10.10
2018-03-03T08:40:25.583Z,10.08
2018-03-03T08:42:53.129Z,10.09
2018-03-03T08:45:21.495Z,10.03
2018-03-03T08:47:49.034Z,9.94
2018-03-03T08:50:16.578Z,9.97
2018-03-03T08:52:44.157Z,9.96
2018-03-03T08:55:11.700Z,10.01
2018-03-03T08:57:39.290Z,10.00
2018-03-03T09:00:07.002Z,10.00
2018-03-03T09:02:34.543Z,10.17
2018-03-03T09:05:02.093Z,10.24
2018-03-03T09:07:29.641Z,10.44
2018-03-03T09:09:57.184Z,10.48
2018-03-03T09:12:24.772Z,10.44
2018-03-03T09:14:52.320Z,10.43
2018-03-03T09:17:19.859Z,10.40
2018-03-03T09:19:47.615Z,10.41
2018-03-03T09:22:15.156Z,10.58
2018-03-03T09:24:42.702Z,10.59
2018-03-03T09:27:10.298Z,10.61
2018-03-03T09:29:37.860Z,10.65
2018-03-03T09:32:05.406Z,10.84
2018-03-03T09:34:33.171Z,11.07
2018-03-03T09:37:00.727Z,11.23
2018-03-03T09:39:28.280Z,11.38
2018-03-03T09:41:56.227Z,11.36
2018-03-03T09:44:23.794Z,11.19
2018-03-03T09:46:51.350Z,11.25
2018-03-03T09:49:19.184Z,11.61
2018-03-03T09:51:46.746Z,11.98
2018-03-03T09:54:14.295Z,12.20
2018-03-03T09:56:42.203Z,12.24
2018-03-03T09:59:09.744Z,12.33
2018-03-03T10:01:43.359Z,12.41
2018-03-03T10:04:05.907Z,12.55
2018-03-03T10:06:33.455Z,12.52
2018-03-03T10:09:01.018Z,12.59
2018-03-03T10:11:28.639Z,12.68
2018-03-03T10:13:56.197Z,12.77
2018-03-03T10:16:23.749Z,12.94
2018-03-03T10:18:51.757Z,13.08
2018-03-03T10:21:19.374Z,13.11
2018-03-03T10:23:46.944Z,13.26
2018-03-03T10:26:14.688Z,13.32
2018-03-03T10:28:42.245Z,13.45
2018-03-03T10:31:09.785Z,13.36
2018-03-03T10:33:37.371Z,13.40
2018-03-03T10:36:04.956Z,13.41
2018-03-03T10:38:33.103Z,13.35
2018-03-03T10:41:00.832Z,13.39
2018-03-03T10:43:28.389Z,13.30
2018-03-03T10:45:55.984Z,13.05
2018-03-03T10:48:23.578Z,13.04
2018-03-03T10:50:51.145Z,12.75
2018-03-03T10:53:18.689Z,12.43
2018-03-03T10:55:46.443Z,12.43
2018-03-03T10:58:14.021Z,12.32
2018-03-03T11:00:41.589Z,12.36
2018-03-03T11:03:09.188Z,12.29
2018-03-03T11:05:36.752Z,12.17
2018-03-03T11:08:04.298Z,12.26
2018-03-03T11:10:31.890Z,12.34
2018-03-03T11:12:59.442Z,12.35
2018-03-03T11:15:27.011Z,12.19
2018-03-03T11:17:54.611Z,12.08
2018-03-03T11:20:22.158Z,12.03
2018-03-03T11:22:49.708Z,11.94
2018-03-03T11:25:17.278Z,11.79
2018-03-03T11:27:44.838Z,11.77
2018-03-03T11:30:12.385Z,11.74
2018-03-03T11:32:39.963Z,11.68
2018-03-03T11:35:07.512Z,11.66
2018-03-03T11:37:35.063Z,11.50
2018-03-03T11:40:02.796Z,11.44
2018-03-03T11:42:30.355Z,11.46
2018-03-03T11:44:57.898Z,11.45
2018-03-03T11:47:25.661Z,11.49
2018-03-03T11:49:53.214Z,11.44
2018-03-03T11:52:20.750Z,11.39
2018-03-03T11:54:48.365Z,11.33
2018-03-03T11:57:15.928Z,11.35
2018-03-03T11:59:43.475Z,11.34
2018-03-03T12:02:11.182Z,11.36
2018-03-03T12:04:38.726Z,11.43
2018-03-03T12:07:06.299Z,11.51
2018-03-03T12:09:33.886Z,11.56
2018-03-03T12:12:01.433Z,11.60
2018-03-03T12:14:28.983Z,11.55
2018-03-03T12:16:56.656Z,11.63
2018-03-03T12:19:24.188Z,11.61
2018-03-03T12:21:51.744Z,11.69
2018-03-03T12:24:19.467Z,11.72
2018-03-03T12:26:47.021Z,11.71
2018-03-03T12:29:14.567Z,11.72
2018-03-03T12:31:42.161Z,11.71
2018-03-03T12:34:09.698Z,11.72
2018-03-03T12:36:37.251Z,11.71
2018-03-03T12:39:05.057Z,11.66
2018-03-03T12:41:32.644Z,11.66
2018-03-03T12:44:00.193Z,11.65
2018-03-03T12:46:27.871Z,11.67
2018-03-03T12:48:55.419Z,11.67
2018-03-03T12:51:22.946Z,11.71
2018-03-03T12:53:50.510Z,11.74
2018-03-03T12:56:18.052Z,11.80
2018-03-03T12:58:45.652Z,11.87
2018-03-03T13:01:13.297Z,11.96
2018-03-03T13:03:40.848Z,12.06
2018-03-03T13:06:08.397Z,12.13
2018-03-03T13:08:35.970Z,12.18
2018-03-03T13:11:03.502Z,12.28
2018-03-03T13:13:31.037Z,12.24
2018-03-03T13:15:58.729Z,12.18
2018-03-03T13:18:26.295Z,12.06
2018-03-03T13:20:53.870Z,11.99
2018-03-03T13:23:21.518Z,12.08
2018-03-03T13:25:49.058Z,12.13
2018-03-03T13:28:16.605Z,12.29
2018-03-03T13:30:44.197Z,12.45
2018-03-03T13:33:11.739Z,12.67
2018-03-03T13:35:39.288Z,12.90
2018-03-03T13:38:06.883Z,12.97
2018-03-03T13:40:34.442Z,12.99
2018-03-03T13:43:01.984Z,12.86
2018-03-03T13:45:29.610Z,12.57
2018-03-03T13:47:57.150Z,12.46
2018-03-03T13:50:24.743Z,12.33
2018-03-03T13:52:52.469Z,12.24
2018-03-03T13:55:20.039Z,12.12
2018-03-03T13:57:47.579Z,12.02
2018-03-03T14:00:15.319Z,11.94
2018-03-03T14:02:42.866Z,11.80
2018-03-03T14:05:10.415Z,11.60
2018-03-03T14:07:37.953Z,11.48
2018-03-03T14:10:05.499Z,11.37
2018-03-03T14:12:33.103Z,11.28
2018-03-03T14:15:00.638Z,11.20
2018-03-03T14:17:28.221Z,11.15
2018-03-03T14:19:55.766Z,11.09
2018-03-03T14:22:23.345Z,11.03
2018-03-03T14:24:50.901Z,11.06
2018-03-03T14:27:18.769Z,11.02
2018-03-03T14:29:46.313Z,11.00
2018-03-03T14:32:13.850Z,10.92
2018-03-03T14:34:41.442Z,10.94
2018-03-03T14:37:08.985Z,10.88
2018-03-03T14:39:37.382Z,10.76
2018-03-03T14:42:05.028Z,10.67
2018-03-03T14:44:32.610Z,10.65
2018-03-03T14:47:00.173Z,10.59
2018-03-03T14:49:27.927Z,10.58
2018-03-03T14:51:55.482Z,10.57
2018-03-03T14:54:23.026Z,10.59
2018-03-03T14:56:50.610Z,10.60
2018-03-03T14:59:18.158Z,10.51
2018-03-03T15:01:45.715Z,10.36
2018-03-03T15:04:13.407Z,10.34
2018-03-03T15:06:40.954Z,10.30
2018-03-03T15:09:08.499Z,10.21
2018-03-03T15:11:36.120Z,10.15
2018-03-03T15:14:03.694Z,9.94
2018-03-03T15:16:31.246Z,9.89
2018-03-03T15:18:58.929Z,9.80
2018-03-03T15:21:26.467Z,9.78
2018-03-03T15:23:54.016Z,9.72
2018-03-03T15:26:21.836Z,9.61
2018-03-03T15:28:49.396Z,9.50
2018-03-03T15:31:16.944Z,9.40
2018-03-03T15:33:44.598Z,9.23
2018-03-03T15:36:12.167Z,9.06
2018-03-03T15:38:39.727Z,8.88
2018-03-03T15:41:07.462Z,8.74
2018-03-03T15:43:34.997Z,8.65
2018-03-03T15:46:02.537Z,8.55
2018-03-03T15:48:30.131Z,8.90
2018-03-03T15:50:57.679Z,9.06
2018-03-03T15:53:25.235Z,9.22
2018-03-03T15:55:53.120Z,9.19
2018-03-03T15:58:20.684Z,9.29
2018-03-03T16:00:48.287Z,9.18
2018-03-03T16:03:15.974Z,9.07
2018-03-03T16:05:43.574Z,8.96
2018-03-03T16:08:11.118Z,8.89
2018-03-03T16:10:38.871Z,8.85
2018-03-03T16:13:06.415Z,8.76
2018-03-03T16:15:33.971Z,8.71
2018-03-03T16:18:01.591Z,8.65
2018-03-03T16:20:29.154Z,8.54
2018-03-03T16:22:56.694Z,8.54
2018-03-03T16:25:24.404Z,8.44
2018-03-03T16:27:52.200Z,8.36
2018-03-03T16:30:19.778Z,8.26
2018-03-03T16:32:47.669Z,8.12
2018-03-03T16:35:15.213Z,8.13
2018-03-03T16:37:42.780Z,8.31
2018-03-03T16:40:10.362Z,8.51
2018-03-03T16:42:37.976Z,8.37
2018-03-03T16:45:05.530Z,8.17
2018-03-03T16:47:33.274Z,8.10
2018-03-03T16:50:00.813Z,8.44
2018-03-03T16:52:28.389Z,8.40
2018-03-03T16:54:56.101Z,8.26
2018-03-03T16:57:23.652Z,8.11
2018-03-03T16:59:51.199Z,7.99
2018-03-03T17:02:18.960Z,7.81
2018-03-03T17:04:46.525Z,7.60
2018-03-03T17:07:14.084Z,7.49
2018-03-03T17:09:41.826Z,7.42
2018-03-03T17:12:09.410Z,7.31
2018-03-03T17:14:37.003Z,7.68
2018-03-03T17:17:04.734Z,7.83
2018-03-03T17:19:32.282Z,7.87
2018-03-03T17:21:59.856Z,7.91
2018-03-03T17:24:28.310Z,7.87
2018-03-03T17:26:55.856Z,7.82
2018-03-03T17:29:23.420Z,7.84
2018-03-03T17:31:51.734Z,7.72
2018-03-03T17:34:19.267Z,7.77
2018-03-03T17:36:46.868Z,7.75
2018-03-03T17:39:14.555Z,8.06
2018-03-03T17:41:42.101Z,8.00
2018-03-03T17:44:09.654Z,7.96
2018-03-03T17:46:37.256Z,8.04
2018-03-03T17:49:04.842Z,8.03
2018-03-03T17:51:32.421Z,8.11
2018-03-03T17:53:59.996Z,8.21
2018-03-03T17:56:27.539Z,8.17
2018-03-03T17:58:55.097Z,8.26
2018-03-03T18:01:22.856Z,8.31
2018-03-03T18:03:50.421Z,8.49
2018-03-03T18:06:18.048Z,8.33
2018-03-03T18:08:45.597Z,8.20
2018-03-03T18:11:15.144Z,8.13
2018-03-03T18:13:42.765Z,8.23
2018-03-03T18:16:10.312Z,8.29
2018-03-03T18:18:37.857Z,8.23
2018-03-03T18:21:05.440Z,8.18
2018-03-03T18:23:32.987Z,8.41
2018-03-03T18:26:00.546Z,8.38
2018-03-03T18:28:28.269Z,8.34
2018-03-03T18:30:55.829Z,8.66
2018-03-03T18:33:23.373Z,8.64
2018-03-03T18:35:51.105Z,8.80
2018-03-03T18:38:18.640Z,8.75
2018-03-03T18:40:46.181Z,9.06
2018-03-03T18:43:14.072Z,9.12
2018-03-03T18:45:41.623Z,9.22
2018-03-03T18:48:09.219Z,9.17
2018-03-03T18:50:36.806Z,9.07
2018-03-03T18:53:04.374Z,8.94
2018-03-03T18:55:31.940Z,8.80
2018-03-03T18:57:59.549Z,8.92
2018-03-03T19:00:27.295Z,8.85
2018-03-03T19:02:54.851Z,8.70
2018-03-03T19:05:22.448Z,8.63
2018-03-03T19:07:50.022Z,8.79
2018-03-03T19:10:17.626Z,8.90
2018-03-03T19:12:45.203Z,8.88
2018-03-03T19:15:12.810Z,8.86
2018-03-03T19:17:40.359Z,8.81
2018-03-03T19:20:07.956Z,8.72
2018-03-03T19:22:35.532Z,8.62
2018-03-03T19:25:03.079Z,8.59
2018-03-03T19:27:31.001Z,8.58
2018-03-03T19:29:58.586Z,8.45
2018-03-03T19:32:26.151Z,8.32
2018-03-03T19:34:54.068Z,8.18
2018-03-03T19:37:21.622Z,8.19
2018-03-03T19:39:49.303Z,8.10
2018-03-03T19:42:16.914Z,8.03
2018-03-03T19:44:44.491Z,7.97
2018-03-03T19:47:12.059Z,7.87
2018-03-03T19:49:39.684Z,7.69
2018-03-03T19:52:07.302Z,7.57
2018-03-03T19:54:34.864Z,7.47
2018-03-03T19:57:02.603Z,7.34
2018-03-03T19:59:30.162Z,7.24
2018-03-03T20:01:57.726Z,7.13
2018-03-03T20:04:25.458Z,7.03
2018-03-03T20:06:53.045Z,6.83
2018-03-03T20:09:20.654Z,6.76
2018-03-03T20:11:48.504Z,6.64
2018-03-03T20:14:16.134Z,6.50
2018-03-03T20:16:43.719Z,6.40
2018-03-03T20:19:11.468Z,6.31
2018-03-03T20:21:39.553Z,6.24
2018-03-03T20:24:07.138Z,6.18
2018-03-03T20:29:01.567Z,6.07
2018-03-03T20:31:29.105Z,6.02
2018-03-03T20:33:56.847Z,6.01
2018-03-03T20:36:24.415Z,5.97
2018-03-03T20:38:51.964Z,5.93
2018-03-03T20:41:19.559Z,5.92
2018-03-03T20:43:47.106Z,5.96
2018-03-03T20:46:14.683Z,5.92
2018-03-03T20:48:42.391Z,5.83
2018-03-03T20:51:09.942Z,5.82
2018-03-03T20:53:37.543Z,5.78
2018-03-03T20:56:05.183Z,5.74
2018-03-03T20:58:32.764Z,5.67
2018-03-03T21:01:00.310Z,5.63
2018-03-03T21:03:28.148Z,5.69
2018-03-03T21:05:55.733Z,5.73
2018-03-03T21:08:23.338Z,5.73
2018-03-03T21:10:50.951Z,5.73
2018-03-03T21:13:18.524Z,5.71
2018-03-03T21:15:46.061Z,5.68
2018-03-03T21:18:13.655Z,5.66
2018-03-03T21:20:41.205Z,5.65
2018-03-03T21:23:08.761Z,5.60
2018-03-03T21:25:36.502Z,5.57
2018-03-03T21:28:04.095Z,5.60
2018-03-03T21:30:31.713Z,5.58
2018-03-03T21:32:59.303Z,5.55
2018-03-03T21:35:26.854Z,5.49
2018-03-03T21:37:54.422Z,5.44
2018-03-03T21:40:22.012Z,5.41
2018-03-03T21:42:49.620Z,5.47
2018-03-03T21:45:17.167Z,5.50
2018-03-03T21:47:44.902Z,5.43
2018-03-03T21:50:12.463Z,5.36
2018-03-03T21:52:40.038Z,5.27
2018-03-03T21:55:07.634Z,5.25
2018-03-03T21:57:35.200Z,5.18
2018-03-03T22:00:02.756Z,5.14
2018-03-03T22:02:30.354Z,5.11
2018-03-03T22:04:57.899Z,5.08
2018-03-03T22:07:25.468Z,5.05
2018-03-03T22:09:53.081Z,5.01
2018-03-03T22:12:20.634Z,4.97
2018-03-03T22:14:48.202Z,4.96
2018-03-03T22:17:15.942Z,4.91
2018-03-03T22:19:43.497Z,4.86
2018-03-03T22:22:11.047Z,4.85
2018-03-03T22:24:38.774Z,4.82
2018-03-03T22:27:06.327Z,4.86
2018-03-03T22:29:33.873Z,4.85
2018-03-03T22:32:01.555Z,4.81
2018-03-03T22:34:29.109Z,4.82
2018-03-03T22:36:56.655Z,4.81
2018-03-03T22:39:24.224Z,4.82
2018-03-03T22:41:51.780Z,4.78
2018-03-03T22:44:19.331Z,4.78
2018-03-03T22:46:46.917Z,4.85
2018-03-03T22:49:14.484Z,4.87
2018-03-03T22:51:42.059Z,4.83
2018-03-03T22:54:09.635Z,4.77
2018-03-03T22:56:37.186Z,4.77
2018-03-03T22:59:04.769Z,4.75
2018-03-03T23:01:32.433Z,4.74
2018-03-03T23:03:59.977Z,4.72
2018-03-03T23:06:27.522Z,4.72
2018-03-03T23:08:55.075Z,4.71
2018-03-03T23:11:22.631Z,4.70
2018-03-03T23:13:50.488Z,4.69
2018-03-03T23:16:18.034Z,4.69
2018-03-03T23:18:45.588Z,4.67
2018-03-03T23:21:13.537Z,4.66
2018-03-03T23:23:41.077Z,4.64
2018-03-03T23:26:08.631Z,4.64
2018-03-03T23:28:36.191Z,4.65
2018-03-03T23:31:03.798Z,4.64
2018-03-03T23:33:31.305Z,4.64
2018-03-03T23:35:58.876Z,4.65
2018-03-03T23:38:26.413Z,4.65
2018-03-03T23:40:53.965Z,4.67
2018-03-03T23:43:21.549Z,4.64
2018-03-03T23:45:49.095Z,4.66
2018-03-03T23:48:16.644Z,4.66
2018-03-03T23:50:44.236Z,4.64
2018-03-03T23:53:11.810Z,4.63
2018-03-03T23:55:39.358Z,4.65
2018-03-03T23:58:06.942Z,4.64
